createdAt,value
2022-09-02T06:07:53.704Z,17.63
2022-09-02T06:10:22.938Z,17.69
2022-09-02T06:12:51.022Z,17.71
2022-09-02T06:15:24.250Z,17.76
2022-09-02T06:17:51.409Z,17.76
2022-09-02T06:20:18.596Z,17.79
2022-09-02T06:22:48.810Z,17.82
2022-09-02T06:25:21.073Z,17.84
2022-09-02T06:27:49.211Z,17.83
2022-09-02T06:30:16.458Z,17.87
2022-09-02T06:32:43.986Z,17.87
2022-09-02T06:35:20.993Z,17.88
2022-09-02T06:37:48.495Z,17.92
2022-09-02T06:40:17.139Z,17.94
2022-09-02T06:42:45.371Z,17.98
2022-09-02T06:45:32.582Z,17.96
2022-09-02T06:48:03.156Z,18.02
2022-09-02T06:50:45.722Z,18.08
2022-09-02T06:53:13.567Z,18.05
2022-09-02T06:55:43.253Z,18.09
2022-09-02T06:58:13.643Z,18.11
2022-09-02T07:00:43.745Z,18.15
2022-09-02T07:03:33.255Z,18.18
2022-09-02T07:06:06.690Z,18.19
2022-09-02T07:08:34.644Z,18.24
2022-09-02T07:11:05.564Z,18.30
2022-09-02T07:13:33.673Z,18.35
2022-09-02T07:16:01.300Z,18.40
2022-09-02T07:18:29.335Z,18.48
2022-09-02T07:20:57.051Z,18.54
2022-09-02T07:23:24.658Z,18.62
2022-09-02T07:25:52.137Z,18.71
2022-09-02T07:28:20.428Z,18.80
2022-09-02T07:30:49.080Z,18.83
2022-09-02T07:33:19.605Z,18.87
2022-09-02T07:35:47.176Z,18.92
2022-09-02T07:38:18.237Z,19.01
2022-09-02T07:40:47.224Z,19.06
2022-09-02T07:43:15.581Z,19.15
2022-09-02T07:45:44.036Z,19.19
2022-09-02T07:48:15.376Z,19.30
2022-09-02T07:50:42.800Z,19.28
2022-09-02T07:53:14.235Z,19.35
2022-09-02T07:55:42.448Z,19.42
2022-09-02T07:58:10.408Z,19.48
2022-09-02T08:00:43.268Z,19.51
2022-09-02T08:03:11.612Z,19.60
2022-09-02T08:05:47.312Z,19.65
2022-09-02T08:08:15.609Z,19.73
2022-09-02T08:10:42.720Z,19.82
2022-09-02T08:13:10.256Z,19.91
2022-09-02T08:15:37.475Z,19.97
2022-09-02T08:18:05.319Z,20.04
2022-09-02T08:20:32.530Z,20.13
2022-09-02T08:23:10.670Z,20.20
2022-09-02T08:25:38.224Z,20.29
2022-09-02T08:28:05.339Z,20.39
2022-09-02T08:30:32.573Z,20.47
2022-09-02T08:32:59.725Z,20.56
2022-09-02T08:35:27.990Z,20.65
2022-09-02T08:37:55.212Z,20.73
2022-09-02T08:40:23.902Z,20.89
2022-09-02T08:42:54.569Z,20.90
2022-09-02T08:45:24.334Z,21.14
2022-09-02T08:48:13.867Z,21.11
2022-09-02T08:50:44.247Z,21.21
2022-09-02T08:53:34.866Z,21.31
2022-09-02T08:56:02.828Z,21.37
2022-09-02T08:58:38.312Z,21.49
2022-09-02T09:01:27.527Z,21.61
2022-09-02T09:04:22.149Z,21.69
2022-09-02T09:07:04.457Z,21.93
2022-09-02T09:09:49.760Z,21.94
2022-09-02T09:12:23.682Z,22.17
2022-09-02T09:15:12.025Z,22.13
2022-09-02T09:17:45.006Z,22.26
2022-09-02T09:20:24.870Z,22.36
2022-09-02T09:22:52.694Z,22.46
2022-09-02T09:25:19.932Z,22.62
2022-09-02T09:27:47.143Z,22.71
2022-09-02T14:21:01.394Z,25.98
2022-09-02T14:23:30.476Z,25.88
2022-09-02T14:25:58.973Z,25.89
2022-09-02T14:28:33.358Z,25.87
2022-09-02T14:31:06.077Z,25.85
2022-09-02T15:09:40.775Z,25.25
2022-09-02T17:43:19.900Z,22.52
2022-09-02T17:45:48.429Z,22.46
2022-09-02T17:48:36.996Z,22.45
